sensor_id;sensor_type;location;lat;lon;timestamp;P1;durP1;ratioP1;P2;durP2;ratioP2
62332;SDS011;48624;49.812;8.562;2022-11-21T00:00:43;12.50;;;3.45;;
62332;SDS011;48624;49.812;8.562;2022-11-21T00:03:10;9.25;;;4.20;;
62332;SDS011;48624;49.812;8.562;2022-11-21T00:05:37;12.00;;;4.75;;
62332;SDS011;48624;49.812;8.562;2022-11-21T00:08:08;11.73;;;4.72;;
62332;SDS011;48624;49.812;8.562;2022-11-21T00:10:35;10.97;;;3.50;;
62332;SDS011;48624;49.812;8.562;2022-11-21T00:13:02;6.97;;;2.72;;
62332;SDS011;48624;49.812;8.562;2022-11-21T00:15:27;7.80;;;2.90;;
62332;SDS011;48624;49.812;8.562;2022-11-21T00:17:53;12.73;;;3.23;;
62332;SDS011;48624;49.812;8.562;2022-11-21T00:20:19;11.10;;;3.08;;
62332;SDS011;48624;49.812;8.562;2022-11-21T00:22:45;9.30;;;3.13;;
62332;SDS011;48624;49.812;8.562;2022-11-21T00:25:11;7.60;;;3.05;;
62332;SDS011;48624;49.812;8.562;2022-11-21T00:27:37;7.00;;;4.00;;
62332;SDS011;48624;49.812;8.562;2022-11-21T00:30:03;12.67;;;3.60;;
62332;SDS011;48624;49.812;8.562;2022-11-21T00:32:28;15.37;;;3.70;;
62332;SDS011;48624;49.812;8.562;2022-11-21T00:34:54;9.57;;;3.40;;
62332;SDS011;48624;49.812;8.562;2022-11-21T00:37:19;12.38;;;4.22;;
62332;SDS011;48624;49.812;8.562;2022-11-21T00:39:44;12.32;;;4.00;;
62332;SDS011;48624;49.812;8.562;2022-11-21T00:42:10;10.73;;;3.72;;
62332;SDS011;48624;49.812;8.562;2022-11-21T00:44:35;12.30;;;4.27;;
62332;SDS011;48624;49.812;8.562;2022-11-21T00:47:01;10.80;;;4.23;;
62332;SDS011;48624;49.812;8.562;2022-11-21T00:49:26;11.55;;;4.47;;
62332;SDS011;48624;49.812;8.562;2022-11-21T00:51:51;11.83;;;4.80;;
62332;SDS011;48624;49.812;8.562;2022-11-21T00:54:17;11.15;;;4.28;;
62332;SDS011;48624;49.812;8.562;2022-11-21T00:56:42;17.83;;;6.55;;
62332;SDS011;48624;49.812;8.562;2022-11-21T00:59:07;12.37;;;4.53;;
62332;SDS011;48624;49.812;8.562;2022-11-21T01:01:33;15.05;;;4.47;;
62332;SDS011;48624;49.812;8.562;2022-11-21T01:03:58;12.48;;;4.70;;
62332;SDS011;48624;49.812;8.562;2022-11-21T01:06:24;16.02;;;5.40;;
62332;SDS011;48624;49.812;8.562;2022-11-21T01:08:49;18.67;;;5.27;;
62332;SDS011;48624;49.812;8.562;2022-11-21T01:11:16;15.13;;;5.72;;
62332;SDS011;48624;49.812;8.562;2022-11-21T01:13:43;13.55;;;5.00;;
62332;SDS011;48624;49.812;8.562;2022-11-21T01:16:10;22.50;;;4.45;;
62332;SDS011;48624;49.812;8.562;2022-11-21T01:18:38;11.77;;;4.47;;
62332;SDS011;48624;49.812;8.562;2022-11-21T01:21:05;16.40;;;4.67;;
62332;SDS011;48624;49.812;8.562;2022-11-21T01:23:33;18.58;;;4.68;;
62332;SDS011;48624;49.812;8.562;2022-11-21T01:26:02;11.55;;;4.20;;
62332;SDS011;48624;49.812;8.562;2022-11-21T01:28:29;13.83;;;4.33;;
62332;SDS011;48624;49.812;8.562;2022-11-21T01:31:01;18.27;;;5.10;;
62332;SDS011;48624;49.812;8.562;2022-11-21T01:33:27;14.15;;;4.00;;
62332;SDS011;48624;49.812;8.562;2022-11-21T01:35:53;18.50;;;5.10;;
62332;SDS011;48624;49.812;8.562;2022-11-21T01:38:19;12.68;;;4.00;;
62332;SDS011;48624;49.812;8.562;2022-11-21T01:40:45;15.77;;;4.93;;
62332;SDS011;48624;49.812;8.562;2022-11-21T01:43:11;12.10;;;4.40;;
62332;SDS011;48624;49.812;8.562;2022-11-21T01:48:16;13.37;;;4.77;;
62332;SDS011;48624;49.812;8.562;2022-11-21T01:50:41;17.23;;;5.73;;
62332;SDS011;48624;49.812;8.562;2022-11-21T01:53:07;22.40;;;6.53;;
62332;SDS011;48624;49.812;8.562;2022-11-21T01:55:32;18.27;;;4.97;;
62332;SDS011;48624;49.812;8.562;2022-11-21T01:57:58;16.33;;;4.20;;
62332;SDS011;48624;49.812;8.562;2022-11-21T02:00:25;19.13;;;4.77;;
62332;SDS011;48624;49.812;8.562;2022-11-21T02:02:54;17.07;;;4.77;;
62332;SDS011;48624;49.812;8.562;2022-11-21T02:05:25;13.90;;;5.15;;
62332;SDS011;48624;49.812;8.562;2022-11-21T02:07:58;12.93;;;4.57;;
62332;SDS011;48624;49.812;8.562;2022-11-21T02:10:28;19.10;;;5.15;;
62332;SDS011;48624;49.812;8.562;2022-11-21T02:12:57;15.93;;;4.37;;
62332;SDS011;48624;49.812;8.562;2022-11-21T02:15:23;22.57;;;5.23;;
62332;SDS011;48624;49.812;8.562;2022-11-21T02:17:50;16.80;;;5.45;;
62332;SDS011;48624;49.812;8.562;2022-11-21T02:20:17;13.37;;;5.13;;
62332;SDS011;48624;49.812;8.562;2022-11-21T02:25:39;22.57;;;6.07;;
62332;SDS011;48624;49.812;8.562;2022-11-21T02:28:15;24.27;;;6.60;;
62332;SDS011;48624;49.812;8.562;2022-11-21T02:30:44;16.90;;;6.78;;
62332;SDS011;48624;49.812;8.562;2022-11-21T02:33:10;33.23;;;10.60;;
62332;SDS011;48624;49.812;8.562;2022-11-21T02:35:36;20.47;;;7.27;;
62332;SDS011;48624;49.812;8.562;2022-11-21T02:38:21;22.60;;;6.13;;
62332;SDS011;48624;49.812;8.562;2022-11-21T02:40:51;22.83;;;9.13;;
62332;SDS011;48624;49.812;8.562;2022-11-21T02:43:23;27.63;;;8.37;;
62332;SDS011;48624;49.812;8.562;2022-11-21T02:45:52;27.63;;;8.37;;
62332;SDS011;48624;49.812;8.562;2022-11-21T02:48:17;23.17;;;6.13;;
62332;SDS011;48624;49.812;8.562;2022-11-21T02:50:44;16.13;;;4.87;;
62332;SDS011;48624;49.812;8.562;2022-11-21T02:53:11;20.50;;;6.07;;
62332;SDS011;48624;49.812;8.562;2022-11-21T02:55:38;23.33;;;7.73;;
62332;SDS011;48624;49.812;8.562;2022-11-21T02:58:04;17.23;;;5.13;;
62332;SDS011;48624;49.812;8.562;2022-11-21T03:00:30;16.67;;;6.57;;
62332;SDS011;48624;49.812;8.562;2022-11-21T03:02:56;17.30;;;6.03;;
62332;SDS011;48624;49.812;8.562;2022-11-21T03:05:21;11.53;;;4.90;;
62332;SDS011;48624;49.812;8.562;2022-11-21T03:07:47;22.27;;;6.50;;
62332;SDS011;48624;49.812;8.562;2022-11-21T03:10:13;16.63;;;6.72;;
62332;SDS011;48624;49.812;8.562;2022-11-21T03:12:39;19.10;;;6.10;;
62332;SDS011;48624;49.812;8.562;2022-11-21T03:15:06;16.83;;;7.03;;
62332;SDS011;48624;49.812;8.562;2022-11-21T03:17:33;19.00;;;6.53;;
62332;SDS011;48624;49.812;8.562;2022-11-21T03:19:59;14.93;;;5.33;;
62332;SDS011;48624;49.812;8.562;2022-11-21T03:22:25;14.30;;;4.97;;
62332;SDS011;48624;49.812;8.562;2022-11-21T03:24:50;14.73;;;5.47;;
62332;SDS011;48624;49.812;8.562;2022-11-21T03:27:16;14.90;;;6.03;;
62332;SDS011;48624;49.812;8.562;2022-11-21T03:29:41;14.80;;;5.57;;
62332;SDS011;48624;49.812;8.562;2022-11-21T03:32:06;12.80;;;5.10;;
62332;SDS011;48624;49.812;8.562;2022-11-21T03:34:33;14.15;;;4.63;;
62332;SDS011;48624;49.812;8.562;2022-11-21T03:36:58;11.80;;;5.03;;
62332;SDS011;48624;49.812;8.562;2022-11-21T03:39:23;13.32;;;4.55;;
62332;SDS011;48624;49.812;8.562;2022-11-21T03:41:49;14.68;;;4.88;;
62332;SDS011;48624;49.812;8.562;2022-11-21T03:44:14;14.77;;;5.30;;
62332;SDS011;48624;49.812;8.562;2022-11-21T03:46:41;14.40;;;5.13;;
62332;SDS011;48624;49.812;8.562;2022-11-21T03:49:07;14.53;;;5.77;;
62332;SDS011;48624;49.812;8.562;2022-11-21T03:51:33;15.93;;;5.23;;
62332;SDS011;48624;49.812;8.562;2022-11-21T03:53:59;13.83;;;4.97;;
62332;SDS011;48624;49.812;8.562;2022-11-21T03:56:24;22.73;;;6.50;;
62332;SDS011;48624;49.812;8.562;2022-11-21T03:58:50;13.00;;;6.27;;
62332;SDS011;48624;49.812;8.562;2022-11-21T04:01:16;14.33;;;5.90;;
62332;SDS011;48624;49.812;8.562;2022-11-21T04:03:42;10.07;;;5.13;;
62332;SDS011;48624;49.812;8.562;2022-11-21T04:06:08;14.80;;;5.30;;
62332;SDS011;48624;49.812;8.562;2022-11-21T04:08:35;12.67;;;4.67;;
62332;SDS011;48624;49.812;8.562;2022-11-21T04:11:00;15.70;;;4.23;;
62332;SDS011;48624;49.812;8.562;2022-11-21T04:13:26;18.63;;;5.27;;
62332;SDS011;48624;49.812;8.562;2022-11-21T04:15:51;13.83;;;5.30;;
62332;SDS011;48624;49.812;8.562;2022-11-21T04:18:16;13.93;;;5.53;;
62332;SDS011;48624;49.812;8.562;2022-11-21T04:20:42;11.30;;;5.00;;
62332;SDS011;48624;49.812;8.562;2022-11-21T04:23:07;12.20;;;4.60;;
62332;SDS011;48624;49.812;8.562;2022-11-21T04:25:33;14.00;;;4.77;;
62332;SDS011;48624;49.812;8.562;2022-11-21T04:27:59;20.17;;;5.27;;
62332;SDS011;48624;49.812;8.562;2022-11-21T04:30:25;16.23;;;6.37;;
62332;SDS011;48624;49.812;8.562;2022-11-21T04:32:51;17.77;;;4.53;;
62332;SDS011;48624;49.812;8.562;2022-11-21T04:35:18;11.70;;;5.10;;
62332;SDS011;48624;49.812;8.562;2022-11-21T04:37:43;8.20;;;4.23;;
62332;SDS011;48624;49.812;8.562;2022-11-21T04:40:09;12.43;;;4.90;;
62332;SDS011;48624;49.812;8.562;2022-11-21T04:42:35;13.00;;;5.00;;
62332;SDS011;48624;49.812;8.562;2022-11-21T04:45:00;12.13;;;5.10;;
62332;SDS011;48624;49.812;8.562;2022-11-21T04:47:26;18.23;;;4.87;;
62332;SDS011;48624;49.812;8.562;2022-11-21T04:49:51;13.87;;;5.30;;
62332;SDS011;48624;49.812;8.562;2022-11-21T04:52:18;18.23;;;5.53;;
62332;SDS011;48624;49.812;8.562;2022-11-21T04:54:43;19.93;;;5.70;;
62332;SDS011;48624;49.812;8.562;2022-11-21T04:57:08;10.80;;;5.13;;
62332;SDS011;48624;49.812;8.562;2022-11-21T04:59:34;14.53;;;6.17;;
62332;SDS011;48624;49.812;8.562;2022-11-21T05:02:01;18.03;;;7.23;;
62332;SDS011;48624;49.812;8.562;2022-11-21T05:04:27;13.20;;;6.77;;
62332;SDS011;48624;49.812;8.562;2022-11-21T05:06:53;17.73;;;6.90;;
62332;SDS011;48624;49.812;8.562;2022-11-21T05:09:18;15.02;;;6.22;;
62332;SDS011;48624;49.812;8.562;2022-11-21T05:11:43;19.00;;;6.47;;
62332;SDS011;48624;49.812;8.562;2022-11-21T05:14:27;15.03;;;6.90;;
62332;SDS011;48624;49.812;8.562;2022-11-21T05:16:53;18.30;;;5.77;;
62332;SDS011;48624;49.812;8.562;2022-11-21T05:19:18;15.63;;;5.83;;
62332;SDS011;48624;49.812;8.562;2022-11-21T05:21:44;15.60;;;7.33;;
62332;SDS011;48624;49.812;8.562;2022-11-21T05:24:09;16.97;;;6.60;;
62332;SDS011;48624;49.812;8.562;2022-11-21T05:26:34;11.10;;;6.20;;
62332;SDS011;48624;49.812;8.562;2022-11-21T05:29:00;18.70;;;6.32;;
62332;SDS011;48624;49.812;8.562;2022-11-21T05:31:25;13.47;;;6.00;;
62332;SDS011;48624;49.812;8.562;2022-11-21T05:33:50;11.90;;;5.50;;
62332;SDS011;48624;49.812;8.562;2022-11-21T05:36:16;12.27;;;5.57;;
62332;SDS011;48624;49.812;8.562;2022-11-21T05:38:41;14.27;;;5.47;;
62332;SDS011;48624;49.812;8.562;2022-11-21T05:41:07;11.87;;;5.27;;
62332;SDS011;48624;49.812;8.562;2022-11-21T05:43:32;16.63;;;6.43;;
62332;SDS011;48624;49.812;8.562;2022-11-21T05:46:10;17.53;;;6.07;;
62332;SDS011;48624;49.812;8.562;2022-11-21T05:48:39;22.43;;;6.00;;
62332;SDS011;48624;49.812;8.562;2022-11-21T05:51:04;12.90;;;6.07;;
62332;SDS011;48624;49.812;8.562;2022-11-21T05:53:29;11.47;;;5.03;;
62332;SDS011;48624;49.812;8.562;2022-11-21T05:55:55;13.02;;;5.28;;
62332;SDS011;48624;49.812;8.562;2022-11-21T05:58:20;17.50;;;6.18;;
62332;SDS011;48624;49.812;8.562;2022-11-21T06:00:45;13.37;;;5.70;;
62332;SDS011;48624;49.812;8.562;2022-11-21T06:03:11;12.03;;;5.53;;
62332;SDS011;48624;49.812;8.562;2022-11-21T06:06:02;10.97;;;5.00;;
62332;SDS011;48624;49.812;8.562;2022-11-21T06:08:33;16.33;;;4.72;;
62332;SDS011;48624;49.812;8.562;2022-11-21T06:11:01;15.73;;;4.83;;
62332;SDS011;48624;49.812;8.562;2022-11-21T06:13:27;11.37;;;4.53;;
62332;SDS011;48624;49.812;8.562;2022-11-21T06:16:00;15.23;;;5.43;;
62332;SDS011;48624;49.812;8.562;2022-11-21T06:18:26;9.47;;;4.10;;
62332;SDS011;48624;49.812;8.562;2022-11-21T06:20:52;13.40;;;6.95;;
62332;SDS011;48624;49.812;8.562;2022-11-21T06:23:18;14.37;;;7.60;;
62332;SDS011;48624;49.812;8.562;2022-11-21T06:25:43;18.90;;;8.53;;
62332;SDS011;48624;49.812;8.562;2022-11-21T06:28:09;17.80;;;9.50;;
62332;SDS011;48624;49.812;8.562;2022-11-21T06:30:35;11.03;;;5.50;;
62332;SDS011;48624;49.812;8.562;2022-11-21T06:33:02;8.00;;;4.38;;
62332;SDS011;48624;49.812;8.562;2022-11-21T06:35:29;11.45;;;4.70;;
62332;SDS011;48624;49.812;8.562;2022-11-21T06:37:55;6.80;;;3.88;;
62332;SDS011;48624;49.812;8.562;2022-11-21T06:40:21;11.63;;;3.47;;
62332;SDS011;48624;49.812;8.562;2022-11-21T06:42:46;18.07;;;6.43;;
62332;SDS011;48624;49.812;8.562;2022-11-21T06:45:11;34.70;;;11.80;;
62332;SDS011;48624;49.812;8.562;2022-11-21T06:47:37;23.70;;;7.88;;
62332;SDS011;48624;49.812;8.562;2022-11-21T06:50:02;34.80;;;12.20;;
62332;SDS011;48624;49.812;8.562;2022-11-21T06:52:27;33.20;;;10.67;;
62332;SDS011;48624;49.812;8.562;2022-11-21T06:54:57;10.10;;;4.40;;
62332;SDS011;48624;49.812;8.562;2022-11-21T06:57:22;9.53;;;3.17;;
62332;SDS011;48624;49.812;8.562;2022-11-21T06:59:47;6.53;;;3.33;;
62332;SDS011;48624;49.812;8.562;2022-11-21T07:02:12;7.03;;;2.07;;
62332;SDS011;48624;49.812;8.562;2022-11-21T07:04:38;13.70;;;3.30;;
62332;SDS011;48624;49.812;8.562;2022-11-21T07:07:04;4.87;;;2.07;;
62332;SDS011;48624;49.812;8.562;2022-11-21T07:09:29;3.77;;;1.90;;
62332;SDS011;48624;49.812;8.562;2022-11-21T07:11:55;6.27;;;2.23;;
62332;SDS011;48624;49.812;8.562;2022-11-21T07:14:40;4.72;;;2.35;;
62332;SDS011;48624;49.812;8.562;2022-11-21T07:17:09;4.65;;;2.40;;
62332;SDS011;48624;49.812;8.562;2022-11-21T07:19:35;7.40;;;3.57;;
62332;SDS011;48624;49.812;8.562;2022-11-21T07:22:00;8.53;;;3.03;;
62332;SDS011;48624;49.812;8.562;2022-11-21T07:24:26;7.07;;;2.90;;
62332;SDS011;48624;49.812;8.562;2022-11-21T07:26:51;7.43;;;3.00;;
62332;SDS011;48624;49.812;8.562;2022-11-21T07:29:16;9.43;;;3.87;;
62332;SDS011;48624;49.812;8.562;2022-11-21T07:31:41;10.40;;;3.47;;
62332;SDS011;48624;49.812;8.562;2022-11-21T07:34:07;10.60;;;3.90;;
62332;SDS011;48624;49.812;8.562;2022-11-21T07:36:32;8.73;;;3.50;;
62332;SDS011;48624;49.812;8.562;2022-11-21T07:39:00;7.35;;;4.05;;
62332;SDS011;48624;49.812;8.562;2022-11-21T07:41:25;5.73;;;2.87;;
62332;SDS011;48624;49.812;8.562;2022-11-21T07:43:50;11.93;;;3.33;;
62332;SDS011;48624;49.812;8.562;2022-11-21T07:46:15;8.13;;;2.87;;
62332;SDS011;48624;49.812;8.562;2022-11-21T07:48:41;4.33;;;2.73;;
62332;SDS011;48624;49.812;8.562;2022-11-21T07:51:06;5.82;;;3.25;;
62332;SDS011;48624;49.812;8.562;2022-11-21T07:53:31;9.52;;;3.30;;
62332;SDS011;48624;49.812;8.562;2022-11-21T07:55:57;10.75;;;4.65;;
62332;SDS011;48624;49.812;8.562;2022-11-21T07:58:23;5.57;;;3.30;;
62332;SDS011;48624;49.812;8.562;2022-11-21T08:00:49;8.03;;;3.23;;
62332;SDS011;48624;49.812;8.562;2022-11-21T08:03:14;9.83;;;3.50;;
62332;SDS011;48624;49.812;8.562;2022-11-21T08:05:40;13.32;;;4.75;;
62332;SDS011;48624;49.812;8.562;2022-11-21T08:08:07;11.20;;;5.65;;
62332;SDS011;48624;49.812;8.562;2022-11-21T08:10:36;12.90;;;4.30;;
62332;SDS011;48624;49.812;8.562;2022-11-21T08:13:02;10.93;;;4.80;;
62332;SDS011;48624;49.812;8.562;2022-11-21T08:15:27;8.80;;;3.97;;
62332;SDS011;48624;49.812;8.562;2022-11-21T08:17:53;7.07;;;4.13;;
62332;SDS011;48624;49.812;8.562;2022-11-21T08:20:18;11.00;;;3.57;;
62332;SDS011;48624;49.812;8.562;2022-11-21T08:22:43;8.20;;;3.90;;
62332;SDS011;48624;49.812;8.562;2022-11-21T08:25:09;11.87;;;3.70;;
62332;SDS011;48624;49.812;8.562;2022-11-21T08:27:36;11.25;;;3.97;;
62332;SDS011;48624;49.812;8.562;2022-11-21T08:30:03;7.77;;;3.30;;
62332;SDS011;48624;49.812;8.562;2022-11-21T08:32:33;5.10;;;2.90;;
62332;SDS011;48624;49.812;8.562;2022-11-21T08:34:58;5.93;;;3.30;;
62332;SDS011;48624;49.812;8.562;2022-11-21T08:37:25;6.25;;;4.25;;
62332;SDS011;48624;49.812;8.562;2022-11-21T08:39:51;9.17;;;2.90;;
62332;SDS011;48624;49.812;8.562;2022-11-21T08:42:16;6.55;;;2.40;;
62332;SDS011;48624;49.812;8.562;2022-11-21T08:44:42;11.02;;;3.63;;
62332;SDS011;48624;49.812;8.562;2022-11-21T08:47:07;16.53;;;4.57;;
62332;SDS011;48624;49.812;8.562;2022-11-21T08:49:32;7.68;;;3.90;;
62332;SDS011;48624;49.812;8.562;2022-11-21T08:51:59;15.23;;;3.63;;
62332;SDS011;48624;49.812;8.562;2022-11-21T08:54:24;9.00;;;3.00;;
62332;SDS011;48624;49.812;8.562;2022-11-21T08:56:49;12.48;;;3.65;;
62332;SDS011;48624;49.812;8.562;2022-11-21T08:59:15;7.45;;;3.08;;
62332;SDS011;48624;49.812;8.562;2022-11-21T09:01:42;9.68;;;3.42;;
62332;SDS011;48624;49.812;8.562;2022-11-21T09:04:08;9.98;;;2.80;;
62332;SDS011;48624;49.812;8.562;2022-11-21T09:06:34;5.97;;;2.67;;
62332;SDS011;48624;49.812;8.562;2022-11-21T09:09:00;7.20;;;2.90;;
62332;SDS011;48624;49.812;8.562;2022-11-21T09:11:26;7.32;;;2.50;;
62332;SDS011;48624;49.812;8.562;2022-11-21T09:13:51;5.15;;;2.50;;
62332;SDS011;48624;49.812;8.562;2022-11-21T09:16:36;5.38;;;2.45;;
62332;SDS011;48624;49.812;8.562;2022-11-21T09:19:20;4.68;;;1.75;;
62332;SDS011;48624;49.812;8.562;2022-11-21T09:21:49;3.85;;;2.00;;
62332;SDS011;48624;49.812;8.562;2022-11-21T09:24:15;7.63;;;2.17;;
62332;SDS011;48624;49.812;8.562;2022-11-21T09:26:41;7.88;;;1.98;;
62332;SDS011;48624;49.812;8.562;2022-11-21T09:29:10;4.38;;;1.40;;
62332;SDS011;48624;49.812;8.562;2022-11-21T09:31:38;10.77;;;2.05;;
62332;SDS011;48624;49.812;8.562;2022-11-21T09:34:07;4.13;;;1.23;;
62332;SDS011;48624;49.812;8.562;2022-11-21T09:36:32;3.22;;;1.30;;
62332;SDS011;48624;49.812;8.562;2022-11-21T09:38:58;2.25;;;0.80;;
62332;SDS011;48624;49.812;8.562;2022-11-21T09:41:57;3.50;;;1.13;;
62332;SDS011;48624;49.812;8.562;2022-11-21T09:47:16;3.45;;;1.00;;
62332;SDS011;48624;49.812;8.562;2022-11-21T09:49:47;3.40;;;1.40;;
62332;SDS011;48624;49.812;8.562;2022-11-21T09:52:16;4.78;;;1.63;;
62332;SDS011;48624;49.812;8.562;2022-11-21T09:54:46;2.25;;;1.20;;
62332;SDS011;48624;49.812;8.562;2022-11-21T09:57:16;6.75;;;2.13;;
62332;SDS011;48624;49.812;8.562;2022-11-21T09:59:45;3.35;;;1.35;;
62332;SDS011;48624;49.812;8.562;2022-11-21T10:02:15;5.13;;;1.30;;
62332;SDS011;48624;49.812;8.562;2022-11-21T10:04:42;5.30;;;1.75;;
62332;SDS011;48624;49.812;8.562;2022-11-21T10:15:23;4.65;;;1.33;;
62332;SDS011;48624;49.812;8.562;2022-11-21T10:21:11;5.32;;;1.05;;
62332;SDS011;48624;49.812;8.562;2022-11-21T10:26:26;1.95;;;0.77;;
62332;SDS011;48624;49.812;8.562;2022-11-21T10:29:19;3.28;;;1.10;;
62332;SDS011;48624;49.812;8.562;2022-11-21T10:31:45;3.40;;;0.88;;
62332;SDS011;48624;49.812;8.562;2022-11-21T10:34:14;7.05;;;3.45;;
62332;SDS011;48624;49.812;8.562;2022-11-21T10:36:43;11.25;;;5.20;;
62332;SDS011;48624;49.812;8.562;2022-11-21T10:39:15;8.40;;;5.75;;
62332;SDS011;48624;49.812;8.562;2022-11-21T10:47:21;3.33;;;1.58;;
62332;SDS011;48624;49.812;8.562;2022-11-21T10:55:56;3.13;;;0.90;;
62332;SDS011;48624;49.812;8.562;2022-11-21T10:58:39;4.53;;;0.80;;
62332;SDS011;48624;49.812;8.562;2022-11-21T11:01:29;4.32;;;1.33;;
62332;SDS011;48624;49.812;8.562;2022-11-21T11:06:42;7.35;;;1.65;;
62332;SDS011;48624;49.812;8.562;2022-11-21T11:10:11;2.50;;;1.30;;
62332;SDS011;48624;49.812;8.562;2022-11-21T11:15:15;5.90;;;1.17;;
62332;SDS011;48624;49.812;8.562;2022-11-21T11:17:55;4.00;;;1.50;;
62332;SDS011;48624;49.812;8.562;2022-11-21T11:23:39;6.43;;;1.30;;
62332;SDS011;48624;49.812;8.562;2022-11-21T11:26:13;5.70;;;1.70;;
62332;SDS011;48624;49.812;8.562;2022-11-21T11:28:43;4.50;;;1.10;;
62332;SDS011;48624;49.812;8.562;2022-11-21T11:31:09;4.38;;;1.13;;
62332;SDS011;48624;49.812;8.562;2022-11-21T11:34:08;3.75;;;1.20;;
62332;SDS011;48624;49.812;8.562;2022-11-21T11:36:35;5.60;;;1.98;;
62332;SDS011;48624;49.812;8.562;2022-11-21T11:39:25;6.70;;;1.48;;
62332;SDS011;48624;49.812;8.562;2022-11-21T11:42:03;7.65;;;1.45;;
62332;SDS011;48624;49.812;8.562;2022-11-21T11:48:08;5.20;;;1.63;;
62332;SDS011;48624;49.812;8.562;2022-11-21T11:50:39;3.83;;;1.20;;
62332;SDS011;48624;49.812;8.562;2022-11-21T11:53:10;6.93;;;1.52;;
62332;SDS011;48624;49.812;8.562;2022-11-21T12:03:50;7.05;;;1.60;;
62332;SDS011;48624;49.812;8.562;2022-11-21T12:06:25;5.68;;;1.30;;
62332;SDS011;48624;49.812;8.562;2022-11-21T12:08:58;5.03;;;1.70;;
62332;SDS011;48624;49.812;8.562;2022-11-21T12:11:33;3.65;;;1.45;;
62332;SDS011;48624;49.812;8.562;2022-11-21T12:26:27;3.97;;;1.27;;
62332;SDS011;48624;49.812;8.562;2022-11-21T12:45:29;9.00;;;3.33;;
62332;SDS011;48624;49.812;8.562;2022-11-21T12:48:17;4.45;;;1.73;;
62332;SDS011;48624;49.812;8.562;2022-11-21T12:54:28;6.20;;;2.03;;
62332;SDS011;48624;49.812;8.562;2022-11-21T12:57:08;7.05;;;1.75;;
62332;SDS011;48624;49.812;8.562;2022-11-21T12:59:38;6.03;;;1.83;;
62332;SDS011;48624;49.812;8.562;2022-11-21T13:04:54;3.22;;;1.33;;
62332;SDS011;48624;49.812;8.562;2022-11-21T13:07:22;5.75;;;2.00;;
62332;SDS011;48624;49.812;8.562;2022-11-21T13:09:52;5.68;;;1.63;;
62332;SDS011;48624;49.812;8.562;2022-11-21T13:12:35;7.50;;;2.38;;
62332;SDS011;48624;49.812;8.562;2022-11-21T13:15:26;21.55;;;7.53;;
62332;SDS011;48624;49.812;8.562;2022-11-21T13:17:56;9.05;;;4.25;;
62332;SDS011;48624;49.812;8.562;2022-11-21T13:23:02;3.10;;;1.40;;
62332;SDS011;48624;49.812;8.562;2022-11-21T13:30:47;5.95;;;2.03;;
62332;SDS011;48624;49.812;8.562;2022-11-21T13:36:09;6.35;;;2.20;;
62332;SDS011;48624;49.812;8.562;2022-11-21T13:47:45;4.32;;;1.70;;
62332;SDS011;48624;49.812;8.562;2022-11-21T13:52:27;7.32;;;1.40;;
62332;SDS011;48624;49.812;8.562;2022-11-21T14:00:22;5.70;;;1.58;;
62332;SDS011;48624;49.812;8.562;2022-11-21T14:03:03;6.28;;;1.13;;
62332;SDS011;48624;49.812;8.562;2022-11-21T14:06:00;6.70;;;1.42;;
62332;SDS011;48624;49.812;8.562;2022-11-21T14:08:29;7.75;;;1.60;;
62332;SDS011;48624;49.812;8.562;2022-11-21T14:10:55;6.03;;;1.50;;
62332;SDS011;48624;49.812;8.562;2022-11-21T14:13:28;4.80;;;1.23;;
62332;SDS011;48624;49.812;8.562;2022-11-21T14:18:40;10.48;;;2.42;;
62332;SDS011;48624;49.812;8.562;2022-11-21T14:21:14;4.13;;;1.58;;
62332;SDS011;48624;49.812;8.562;2022-11-21T14:23:44;5.80;;;1.48;;
62332;SDS011;48624;49.812;8.562;2022-11-21T14:26:19;5.25;;;1.35;;
62332;SDS011;48624;49.812;8.562;2022-11-21T14:28:45;4.22;;;1.20;;
62332;SDS011;48624;49.812;8.562;2022-11-21T14:31:12;7.80;;;1.42;;
62332;SDS011;48624;49.812;8.562;2022-11-21T14:33:41;6.13;;;1.58;;
62332;SDS011;48624;49.812;8.562;2022-11-21T14:38:39;5.10;;;1.75;;
62332;SDS011;48624;49.812;8.562;2022-11-21T14:41:12;4.78;;;1.70;;
62332;SDS011;48624;49.812;8.562;2022-11-21T14:43:47;7.20;;;1.75;;
62332;SDS011;48624;49.812;8.562;2022-11-21T14:46:14;7.97;;;2.63;;
62332;SDS011;48624;49.812;8.562;2022-11-21T14:48:40;5.38;;;2.70;;
62332;SDS011;48624;49.812;8.562;2022-11-21T14:51:07;6.95;;;3.70;;
62332;SDS011;48624;49.812;8.562;2022-11-21T14:53:39;4.55;;;2.17;;
62332;SDS011;48624;49.812;8.562;2022-11-21T14:56:08;6.43;;;2.17;;
62332;SDS011;48624;49.812;8.562;2022-11-21T14:58:36;4.30;;;2.10;;
62332;SDS011;48624;49.812;8.562;2022-11-21T15:01:18;6.47;;;1.85;;
62332;SDS011;48624;49.812;8.562;2022-11-21T15:06:39;5.82;;;2.20;;
62332;SDS011;48624;49.812;8.562;2022-11-21T15:09:05;5.43;;;2.05;;
62332;SDS011;48624;49.812;8.562;2022-11-21T15:11:45;6.78;;;2.90;;
62332;SDS011;48624;49.812;8.562;2022-11-21T15:14:18;6.25;;;2.33;;
62332;SDS011;48624;49.812;8.562;2022-11-21T15:16:50;10.32;;;2.22;;
62332;SDS011;48624;49.812;8.562;2022-11-21T15:19:18;5.45;;;2.00;;
62332;SDS011;48624;49.812;8.562;2022-11-21T15:21:49;9.38;;;2.83;;
62332;SDS011;48624;49.812;8.562;2022-11-21T15:24:38;9.23;;;2.45;;
62332;SDS011;48624;49.812;8.562;2022-11-21T15:27:22;8.50;;;2.88;;
62332;SDS011;48624;49.812;8.562;2022-11-21T15:30:01;6.03;;;2.85;;
62332;SDS011;48624;49.812;8.562;2022-11-21T15:43:38;6.55;;;3.38;;
62332;SDS011;48624;49.812;8.562;2022-11-21T15:46:30;7.25;;;3.22;;
62332;SDS011;48624;49.812;8.562;2022-11-21T15:51:41;5.22;;;2.45;;
62332;SDS011;48624;49.812;8.562;2022-11-21T15:54:09;5.47;;;2.97;;
62332;SDS011;48624;49.812;8.562;2022-11-21T15:56:37;9.07;;;3.72;;
62332;SDS011;48624;49.812;8.562;2022-11-21T15:59:04;5.50;;;2.83;;
62332;SDS011;48624;49.812;8.562;2022-11-21T16:01:29;7.70;;;2.80;;
62332;SDS011;48624;49.812;8.562;2022-11-21T16:03:55;7.00;;;2.83;;
62332;SDS011;48624;49.812;8.562;2022-11-21T16:06:22;12.05;;;3.85;;
62332;SDS011;48624;49.812;8.562;2022-11-21T16:08:48;9.23;;;3.58;;
62332;SDS011;48624;49.812;8.562;2022-11-21T16:11:21;8.55;;;3.08;;
62332;SDS011;48624;49.812;8.562;2022-11-21T16:13:49;6.93;;;3.10;;
62332;SDS011;48624;49.812;8.562;2022-11-21T16:16:15;10.40;;;3.13;;
62332;SDS011;48624;49.812;8.562;2022-11-21T16:18:41;8.27;;;2.78;;
62332;SDS011;48624;49.812;8.562;2022-11-21T16:21:07;8.70;;;2.92;;
62332;SDS011;48624;49.812;8.562;2022-11-21T16:23:34;5.90;;;3.15;;
62332;SDS011;48624;49.812;8.562;2022-11-21T16:25:59;8.63;;;3.05;;
62332;SDS011;48624;49.812;8.562;2022-11-21T16:28:24;8.38;;;3.03;;
62332;SDS011;48624;49.812;8.562;2022-11-21T16:30:50;9.57;;;3.10;;
62332;SDS011;48624;49.812;8.562;2022-11-21T16:33:15;9.02;;;2.53;;
62332;SDS011;48624;49.812;8.562;2022-11-21T16:35:40;11.00;;;2.88;;
62332;SDS011;48624;49.812;8.562;2022-11-21T16:38:07;11.80;;;3.63;;
62332;SDS011;48624;49.812;8.562;2022-11-21T16:40:33;8.40;;;2.90;;
62332;SDS011;48624;49.812;8.562;2022-11-21T16:43:05;7.40;;;2.70;;
62332;SDS011;48624;49.812;8.562;2022-11-21T16:45:32;8.30;;;4.20;;
62332;SDS011;48624;49.812;8.562;2022-11-21T16:47:58;11.07;;;5.10;;
62332;SDS011;48624;49.812;8.562;2022-11-21T16:50:23;19.50;;;7.05;;
62332;SDS011;48624;49.812;8.562;2022-11-21T16:52:48;22.47;;;9.50;;
62332;SDS011;48624;49.812;8.562;2022-11-21T16:55:14;10.80;;;3.93;;
62332;SDS011;48624;49.812;8.562;2022-11-21T16:57:39;9.57;;;2.97;;
62332;SDS011;48624;49.812;8.562;2022-11-21T17:00:06;14.27;;;4.33;;
62332;SDS011;48624;49.812;8.562;2022-11-21T17:02:32;11.07;;;4.38;;
62332;SDS011;48624;49.812;8.562;2022-11-21T17:04:57;9.77;;;3.67;;
62332;SDS011;48624;49.812;8.562;2022-11-21T17:07:22;7.32;;;2.97;;